Time;durP1;ratioP1;P1;durP2;ratioP2;P2;SDS_P1;SDS_P2;PMS_P1;PMS_P2;Temp;Humidity;BMP_temperature;BMP_pressure;BME280_temperature;BME280_humidity;BME280_pressure;Samples;Min_cycle;Max_cycle;Signal;HPM_P1;HPM_P2
2023/06/06 00:01:58;;;;;;;8.23;2.83;;;17.80;83.90;;;;;;4943715;28;20116;-80
2023/06/06 00:04:24;;;;;;;3.88;2.42;;;17.80;84.50;;;;;;4931931;28;20483;-80
2023/06/06 00:06:52;;;;;;;4.68;2.40;;;17.80;84.70;;;;;;4943533;28;20077;-80
2023/06/06 00:09:18;;;;;;;5.07;2.33;;;17.70;85.00;;;;;;4950860;28;20054;-80
2023/06/06 00:11:46;;;;;;;8.52;2.58;;;17.70;85.60;;;;;;4973370;28;20053;-80
2023/06/06 00:14:18;;;;;;;6.10;2.70;;;17.70;85.20;;;;;;4967978;28;20049;-80
2023/06/06 00:16:48;;;;;;;7.05;2.67;;;17.70;86.20;;;;;;4974951;28;20062;-80
2023/06/06 00:19:18;;;;;;;7.82;2.33;;;17.80;86.40;;;;;;4954312;28;20047;-79
2023/06/06 00:21:44;;;;;;;4.13;2.20;;;17.60;86.40;;;;;;4945575;28;20057;-79
2023/06/06 00:24:11;;;;;;;5.90;2.63;;;17.60;86.80;;;;;;4966552;28;20661;-79
2023/06/06 00:26:37;;;;;;;5.72;2.30;;;17.60;87.00;;;;;;4981908;28;20085;-79
2023/06/06 00:29:02;;;;;;;4.72;2.65;;;17.60;87.90;;;;;;4977740;28;20043;-79
2023/06/06 00:31:28;;;;;;;6.25;2.20;;;17.50;88.00;;;;;;4985474;28;20039;-79
2023/06/06 00:33:54;;;;;;;7.40;2.85;;;17.50;88.70;;;;;;4963182;28;20042;-79
2023/06/06 00:36:20;;;;;;;7.28;2.45;;;17.50;88.50;;;;;;4976516;28;20050;-79
2023/06/06 00:38:47;;;;;;;4.00;2.50;;;17.40;89.00;;;;;;4964712;28;20261;-79
2023/06/06 00:41:13;;;;;;;6.75;2.60;;;17.50;89.20;;;;;;4983162;28;20047;-79
2023/06/06 00:43:39;;;;;;;7.03;2.70;;;17.40;89.60;;;;;;4975073;28;20050;-79
2023/06/06 00:46:05;;;;;;;4.15;2.38;;;17.50;90.00;;;;;;4977941;28;20610;-79
2023/06/06 00:48:31;;;;;;;6.68;2.63;;;17.40;90.20;;;;;;4991689;28;20128;-79
2023/06/06 00:50:57;;;;;;;6.05;2.55;;;17.40;90.50;;;;;;4935062;28;20043;-79
2023/06/06 00:53:22;;;;;;;6.57;2.63;;;17.30;90.70;;;;;;4974373;28;20146;-79
2023/06/06 00:55:48;;;;;;;5.45;2.75;;;17.30;90.80;;;;;;4970778;28;20054;-79
2023/06/06 00:58:15;;;;;;;5.82;2.58;;;17.30;90.80;;;;;;4951204;28;20046;-79
2023/06/06 01:00:41;;;;;;;8.68;2.22;;;17.20;91.00;;;;;;4944928;28;20240;-79
2023/06/06 01:03:09;;;;;;;6.10;2.75;;;17.20;91.10;;;;;;4966080;28;20130;-79
2023/06/06 01:05:39;;;;;;;6.07;2.40;;;17.00;91.20;;;;;;4951974;28;20050;-79
2023/06/06 01:08:06;;;;;;;6.05;2.70;;;17.10;91.20;;;;;;4965238;28;20042;-79
2023/06/06 01:10:34;;;;;;;4.30;2.20;;;17.00;91.40;;;;;;4966323;28;20058;-79
2023/06/06 01:13:33;;;;;;;4.82;2.30;;;17.10;91.50;;;;;;4965075;28;20047;-79
2023/06/06 01:16:02;;;;;;;5.53;2.45;;;17.00;91.60;;;;;;4955897;28;20050;-79
2023/06/06 01:18:29;;;;;;;7.68;2.50;;;17.00;91.90;;;;;;4951694;28;20137;-79
2023/06/06 01:20:55;;;;;;;5.50;2.72;;;17.00;92.00;;;;;;4956732;28;20130;-79
2023/06/06 01:23:21;;;;;;;4.18;2.70;;;16.90;92.20;;;;;;4951471;28;20062;-79
2023/06/06 01:25:48;;;;;;;6.15;2.65;;;16.90;92.40;;;;;;4970339;28;20059;-79
2023/06/06 01:28:15;;;;;;;5.15;2.55;;;16.90;92.30;;;;;;4949690;28;20038;-79
2023/06/06 01:30:42;;;;;;;4.97;2.70;;;16.80;92.40;;;;;;4936395;28;20374;-79
2023/06/06 01:33:32;;;;;;;5.70;2.55;;;16.90;92.50;;;;;;4942556;28;20035;-79
2023/06/06 01:36:24;;;;;;;3.88;2.30;;;16.90;92.70;;;;;;4975167;28;20061;-79
2023/06/06 01:38:58;;;;;;;4.72;2.40;;;16.80;93.00;;;;;;4950839;28;20050;-79
2023/06/06 01:41:25;;;;;;;7.55;2.78;;;16.80;93.10;;;;;;4963409;28;20117;-79
2023/06/06 01:43:51;;;;;;;5.45;2.50;;;16.70;93.20;;;;;;4960168;28;20046;-79
2023/06/06 01:46:18;;;;;;;6.63;3.17;;;16.70;93.20;;;;;;4965734;28;20042;-80
2023/06/06 01:48:44;;;;;;;3.97;2.63;;;16.80;93.40;;;;;;4971630;28;20041;-80
2023/06/06 01:51:10;;;;;;;4.65;2.60;;;16.70;93.40;;;;;;4962509;28;20485;-80
2023/06/06 01:53:35;;;;;;;6.18;2.40;;;16.70;93.50;;;;;;4947205;28;20113;-80
2023/06/06 01:56:01;;;;;;;4.80;2.80;;;16.70;93.70;;;;;;4962975;28;20164;-80
2023/06/06 01:58:27;;;;;;;5.57;2.63;;;16.50;93.70;;;;;;4970114;28;20077;-79
2023/06/06 02:00:53;;;;;;;5.57;2.60;;;16.50;93.90;;;;;;4937022;28;20363;-79
2023/06/06 02:03:22;;;;;;;6.07;2.58;;;16.50;94.00;;;;;;4975848;28;20046;-79
2023/06/06 02:05:48;;;;;;;4.75;2.53;;;16.50;94.20;;;;;;4985323;28;20047;-79
2023/06/06 02:08:14;;;;;;;4.82;2.53;;;16.40;94.20;;;;;;4988308;28;20039;-79
2023/06/06 02:10:40;;;;;;;6.30;2.75;;;16.40;94.20;;;;;;4935005;28;20360;-79
2023/06/06 02:13:05;;;;;;;6.60;2.63;;;16.40;94.30;;;;;;5001146;28;20051;-79
2023/06/06 02:15:32;;;;;;;6.05;2.47;;;16.40;94.40;;;;;;4962709;28;20047;-79
2023/06/06 02:17:58;;;;;;;4.80;2.72;;;16.30;94.60;;;;;;4982698;28;20059;-79
2023/06/06 02:20:24;;;;;;;4.60;2.53;;;16.30;94.60;;;;;;4936063;28;20118;-79
2023/06/06 02:22:49;;;;;;;3.75;2.47;;;16.30;94.60;;;;;;4981740;28;20475;-79
2023/06/06 02:25:16;;;;;;;6.97;2.70;;;16.40;94.70;;;;;;4967630;28;20057;-79
2023/06/06 02:27:44;;;;;;;4.55;2.50;;;16.30;94.60;;;;;;4974800;28;20034;-79
2023/06/06 02:30:10;;;;;;;6.57;2.67;;;16.30;94.80;;;;;;4951752;28;20049;-79
2023/06/06 02:32:37;;;;;;;3.88;2.60;;;16.20;94.90;;;;;;4942938;28;20352;-79
2023/06/06 02:35:04;;;;;;;4.50;3.08;;;16.10;94.90;;;;;;4955311;28;20048;-79
2023/06/06 02:37:32;;;;;;;6.82;2.70;;;16.10;95.10;;;;;;4959700;28;20042;-79
2023/06/06 02:39:58;;;;;;;;;;;16.20;95.10;;;;;;4934991;28;20034;-79
2023/06/06 02:42:24;;;;;;;7.35;3.20;;;16.10;95.00;;;;;;4975444;28;19909;-79
2023/06/06 02:44:50;;;;;;;5.90;2.72;;;16.00;95.00;;;;;;4974178;28;20129;-79
2023/06/06 02:47:19;;;;;;;4.40;2.75;;;16.00;95.10;;;;;;4940408;28;20085;-79
2023/06/06 02:49:45;;;;;;;5.55;2.40;;;16.10;95.20;;;;;;4987926;28;20039;-79
2023/06/06 02:52:11;;;;;;;9.75;3.05;;;16.00;95.30;;;;;;4975847;28;20459;-79
2023/06/06 02:54:37;;;;;;;7.57;3.13;;;16.00;95.40;;;;;;4954576;28;20126;-79
2023/06/06 02:57:04;;;;;;;4.05;2.65;;;16.00;95.40;;;;;;4983821;28;20072;-79
2023/06/06 02:59:30;;;;;;;6.03;2.65;;;16.00;95.60;;;;;;4998523;28;20042;-79
2023/06/06 03:01:56;;;;;;;5.03;2.85;;;16.00;95.60;;;;;;4938415;28;20116;-79
2023/06/06 03:04:22;;;;;;;6.32;3.05;;;16.10;95.70;;;;;;4967361;28;20038;-79
2023/06/06 03:06:51;;;;;;;5.00;2.60;;;16.00;95.70;;;;;;4970724;28;20057;-79
2023/06/06 03:09:18;;;;;;;5.95;2.83;;;15.80;95.80;;;;;;4963012;28;20046;-79
2023/06/06 03:11:43;;;;;;;6.40;2.75;;;15.80;96.00;;;;;;4943306;28;20051;-79
2023/06/06 03:14:09;;;;;;;7.10;2.45;;;15.90;96.10;;;;;;4975210;28;20519;-79
2023/06/06 03:16:35;;;;;;;7.28;2.80;;;15.90;96.10;;;;;;4958918;28;20046;-79
2023/06/06 03:19:03;;;;;;;5.15;2.88;;;15.90;96.20;;;;;;4959668;28;20456;-79
2023/06/06 03:21:33;;;;;;;6.20;2.60;;;15.90;96.50;;;;;;4961300;28;20043;-79
2023/06/06 03:24:00;;;;;;;6.72;2.75;;;15.90;96.40;;;;;;4932219;28;20053;-79
2023/06/06 03:26:26;;;;;;;6.25;2.85;;;15.90;96.50;;;;;;4960754;28;20186;-79
2023/06/06 03:28:52;;;;;;;6.15;2.85;;;15.70;96.40;;;;;;4964555;28;20034;-79
2023/06/06 03:31:23;;;;;;;7.25;2.97;;;15.80;96.50;;;;;;4943023;28;20069;-79
2023/06/06 03:33:50;;;;;;;4.90;3.15;;;15.80;96.50;;;;;;4961495;28;20105;-79
2023/06/06 03:36:16;;;;;;;6.35;2.63;;;15.80;96.50;;;;;;4968508;28;20814;-79
2023/06/06 03:38:42;;;;;;;6.07;3.00;;;15.80;96.60;;;;;;4966930;28;20050;-79
2023/06/06 03:41:08;;;;;;;5.95;2.70;;;15.80;96.60;;;;;;4951299;28;20082;-79
2023/06/06 03:43:35;;;;;;;4.88;2.90;;;15.80;96.70;;;;;;4977115;28;20043;-79
2023/06/06 03:46:01;;;;;;;6.22;2.97;;;15.70;96.80;;;;;;4960768;28;20038;-79
2023/06/06 03:48:27;;;;;;;9.63;3.88;;;15.70;96.90;;;;;;4965401;28;20055;-79
2023/06/06 03:50:53;;;;;;;6.78;3.42;;;15.70;96.90;;;;;;4965959;28;20119;-79
2023/06/06 03:53:19;;;;;;;4.85;2.67;;;15.80;96.90;;;;;;4982512;28;20050;-79
2023/06/06 03:55:46;;;;;;;5.30;2.80;;;15.80;97.00;;;;;;4934656;28;20129;-79
2023/06/06 03:58:15;;;;;;;7.93;3.45;;;15.80;97.10;;;;;;4964712;28;20042;-79
2023/06/06 04:00:44;;;;;;;5.35;3.30;;;15.80;96.90;;;;;;4962295;28;20039;-79
2023/06/06 04:03:10;;;;;;;6.25;2.90;;;15.80;96.90;;;;;;4953496;28;20060;-79
2023/06/06 04:05:36;;;;;;;5.72;2.78;;;15.80;97.00;;;;;;4980213;28;20053;-79
2023/06/06 04:08:02;;;;;;;7.97;3.03;;;15.80;97.10;;;;;;4954671;28;20435;-79
2023/06/06 04:10:28;;;;;;;10.02;3.38;;;15.80;97.00;;;;;;4966408;28;20065;-79
2023/06/06 04:12:54;;;;;;;6.22;3.13;;;15.80;97.20;;;;;;4950951;28;20035;-79
2023/06/06 04:15:20;;;;;;;5.07;2.90;;;15.90;97.50;;;;;;4961349;28;20043;-79
2023/06/06 04:17:46;;;;;;;8.65;3.47;;;15.80;97.50;;;;;;4936152;29;20460;-79
2023/06/06 04:20:12;;;;;;;8.25;2.80;;;15.90;97.30;;;;;;4976767;28;20101;-79
2023/06/06 04:22:38;;;;;;;5.35;2.78;;;15.90;97.40;;;;;;4966792;28;20527;-79
2023/06/06 04:25:05;;;;;;;5.88;3.00;;;15.90;97.40;;;;;;4967044;28;20495;-79
2023/06/06 04:27:31;;;;;;;4.95;3.10;;;15.90;97.40;;;;;;4960977;28;20341;-79
2023/06/06 04:29:58;;;;;;;7.00;3.85;;;15.70;97.30;;;;;;4949136;28;20074;-79
2023/06/06 04:32:24;;;;;;;6.88;4.13;;;15.90;97.30;;;;;;4947549;28;20042;-80
2023/06/06 04:34:57;;;;;;;5.63;3.30;;;15.90;97.30;;;;;;4945746;28;20054;-79
2023/06/06 04:37:24;;;;;;;7.57;3.42;;;15.90;97.30;;;;;;4971860;28;20046;-79
2023/06/06 04:39:52;;;;;;;7.75;2.97;;;15.90;97.40;;;;;;4963645;28;20034;-79
2023/06/06 04:42:20;;;;;;;5.60;2.88;;;15.90;97.50;;;;;;4954683;28;20125;-79
2023/06/06 04:44:46;;;;;;;6.07;3.10;;;15.90;97.70;;;;;;4980275;28;20146;-79
2023/06/06 04:47:19;;;;;;;5.75;2.80;;;15.90;97.80;;;;;;4976088;28;20050;-79
2023/06/06 04:49:47;;;;;;;6.70;2.88;;;15.90;97.60;;;;;;4995296;28;20105;-79
2023/06/06 04:52:14;;;;;;;4.72;2.45;;;15.90;97.70;;;;;;4946244;28;20417;-79
2023/06/06 04:54:41;;;;;;;4.50;2.90;;;15.90;97.50;;;;;;4956904;28;20050;-78
2023/06/06 04:57:08;;;;;;;4.97;2.45;;;16.00;97.50;;;;;;4934984;28;20314;-79
2023/06/06 04:59:35;;;;;;;4.93;2.63;;;16.00;97.50;;;;;;4942154;28;20050;-79
2023/06/06 05:02:02;;;;;;;6.93;2.80;;;16.00;97.40;;;;;;4959959;28;20057;-79
2023/06/06 05:04:31;;;;;;;5.93;2.83;;;16.00;97.50;;;;;;4942697;29;20039;-79
2023/06/06 05:06:57;;;;;;;9.13;3.05;;;16.00;97.50;;;;;;4984542;28;20145;-79
2023/06/06 05:09:23;;;;;;;7.18;3.17;;;16.00;97.50;;;;;;4982800;28;20057;-79
2023/06/06 05:11:51;;;;;;;6.82;2.72;;;16.10;97.50;;;;;;4930949;28;20042;-79
2023/06/06 05:14:23;;;;;;;7.30;2.45;;;16.00;97.40;;;;;;4968404;28;20046;-79
2023/06/06 05:16:53;;;;;;;7.22;2.60;;;16.10;97.50;;;;;;4946502;28;20047;-79
2023/06/06 05:19:19;;;;;;;4.70;2.80;;;16.10;97.40;;;;;;4939509;28;20117;-79
2023/06/06 05:21:47;;;;;;;5.65;2.50;;;16.10;97.30;;;;;;4942476;28;20057;-79
2023/06/06 05:24:14;;;;;;;5.75;2.90;;;16.10;97.30;;;;;;4977802;28;20113;-79
2023/06/06 05:26:42;;;;;;;10.95;2.90;;;16.20;97.30;;;;;;4947856;28;20042;-79
2023/06/06 05:29:08;;;;;;;8.60;2.70;;;16.20;97.50;;;;;;4934131;28;20039;-79
2023/06/06 05:31:35;;;;;;;7.47;3.20;;;16.20;97.40;;;;;;4942860;28;20046;-79
2023/06/06 05:34:01;;;;;;;6.25;3.00;;;16.20;97.40;;;;;;4961310;28;20558;-79
2023/06/06 05:36:30;;;;;;;7.63;2.80;;;16.20;97.30;;;;;;4978662;28;20058;-79
2023/06/06 05:38:56;;;;;;;9.77;3.15;;;16.30;97.60;;;;;;4976146;28;20043;-79
2023/06/06 05:41:22;;;;;;;8.63;3.08;;;16.30;97.60;;;;;;4975888;28;20456;-79
2023/06/06 05:43:48;;;;;;;6.22;2.92;;;16.30;97.60;;;;;;4982158;28;20039;-79
2023/06/06 05:46:14;;;;;;;4.95;2.67;;;16.40;97.70;;;;;;4972660;28;20049;-79
2023/06/06 05:48:40;;;;;;;4.78;2.88;;;16.40;97.60;;;;;;5001454;28;20132;-79
2023/06/06 05:51:07;;;;;;;5.90;2.50;;;16.30;97.60;;;;;;4939489;28;20218;-79
2023/06/06 05:53:33;;;;;;;5.85;2.75;;;16.50;97.70;;;;;;4980041;28;20038;-79
2023/06/06 05:55:59;;;;;;;7.45;3.00;;;16.50;97.70;;;;;;4975821;28;20054;-77
2023/06/06 05:58:25;;;;;;;6.10;2.67;;;16.50;97.40;;;;;;4968744;28;20030;-76
2023/06/06 06:00:51;;;;;;;7.35;2.88;;;16.60;97.60;;;;;;4984634;28;20062;-76
2023/06/06 06:03:16;;;;;;;6.75;2.70;;;16.60;97.60;;;;;;4984707;28;20058;-75
2023/06/06 06:05:42;;;;;;;6.18;2.90;;;16.60;97.60;;;;;;4968459;28;20042;-76
2023/06/06 06:08:08;;;;;;;6.35;2.40;;;16.70;97.60;;;;;;4984530;28;20038;-76
2023/06/06 06:10:37;;;;;;;5.57;2.53;;;16.70;97.50;;;;;;4984323;28;20049;-77
2023/06/06 06:13:04;;;;;;;6.30;2.60;;;16.70;97.60;;;;;;4984328;28;20035;-76
2023/06/06 06:15:30;;;;;;;5.55;2.85;;;16.80;97.40;;;;;;4968452;28;20030;-76
2023/06/06 06:17:56;;;;;;;6.15;3.03;;;16.80;97.10;;;;;;4968423;28;20045;-76
2023/06/06 06:20:21;;;;;;;6.90;2.53;;;16.90;96.80;;;;;;4984261;28;20038;-76
2023/06/06 06:22:47;;;;;;;6.10;2.60;;;16.80;96.60;;;;;;5000379;28;20114;-76
2023/06/06 06:25:13;;;;;;;4.82;2.40;;;16.80;96.50;;;;;;4984290;28;20030;-76
2023/06/06 06:27:40;;;;;;;5.75;2.72;;;16.90;96.50;;;;;;4984244;28;20059;-76
2023/06/06 06:30:09;;;;;;;3.42;2.20;;;16.90;96.50;;;;;;4984312;28;20086;-76
2023/06/06 06:32:37;;;;;;;4.88;2.65;;;17.00;96.70;;;;;;4968552;28;20042;-76
2023/06/06 06:35:03;;;;;;;7.40;2.95;;;17.00;96.60;;;;;;4968208;28;20050;-77
2023/06/06 06:37:33;;;;;;;7.18;2.65;;;17.10;96.60;;;;;;5000122;28;20065;-76
2023/06/06 06:39:59;;;;;;;6.45;3.08;;;17.10;96.50;;;;;;4984571;28;20319;-76
2023/06/06 06:42:25;;;;;;;5.90;2.60;;;17.10;96.70;;;;;;4975548;28;20042;-76
2023/06/06 06:44:51;;;;;;;4.47;2.50;;;17.20;96.70;;;;;;4980448;28;20036;-81
2023/06/06 06:47:17;;;;;;;4.68;2.75;;;17.30;96.50;;;;;;4950891;28;20049;-83
2023/06/06 06:49:43;;;;;;;5.65;2.70;;;17.30;96.40;;;;;;4988480;28;20069;-83
2023/06/06 06:52:11;;;;;;;7.55;2.55;;;17.30;96.00;;;;;;4982564;28;20037;-76
2023/06/06 06:54:48;;;;;;;10.75;2.50;;;17.40;96.10;;;;;;4954217;28;20107;-78
2023/06/06 06:57:13;;;;;;;7.57;2.70;;;17.40;96.20;;;;;;4967597;28;20081;-83
2023/06/06 06:59:41;;;;;;;5.13;2.60;;;17.50;96.10;;;;;;4950233;28;20051;-83
2023/06/06 07:02:07;;;;;;;7.50;2.85;;;17.50;96.00;;;;;;4967530;28;20106;-83
2023/06/06 07:04:33;;;;;;;7.45;2.95;;;17.50;96.00;;;;;;4961984;28;20070;-83
2023/06/06 07:06:58;;;;;;;4.70;2.40;;;17.60;95.90;;;;;;4977709;28;20043;-82
2023/06/06 07:09:24;;;;;;;3.97;2.25;;;17.70;95.90;;;;;;4936639;28;20058;-83
2023/06/06 07:11:50;;;;;;;6.93;3.17;;;17.70;96.00;;;;;;4972447;28;20050;-80
2023/06/06 07:14:16;;;;;;;5.07;2.70;;;17.80;96.20;;;;;;4979702;28;20082;-84
2023/06/06 07:16:43;;;;;;;6.47;2.80;;;17.80;96.00;;;;;;4954383;28;20043;-84
2023/06/06 07:19:09;;;;;;;7.60;2.90;;;17.80;95.90;;;;;;5001423;28;20776;-84
2023/06/06 07:21:36;;;;;;;5.50;2.80;;;17.90;95.90;;;;;;4969819;28;20046;-85
2023/06/06 07:24:02;;;;;;;7.95;2.63;;;17.90;95.70;;;;;;4966760;28;20042;-84
2023/06/06 07:26:29;;;;;;;4.18;2.60;;;18.00;95.60;;;;;;4959973;28;20645;-85
2023/06/06 07:28:55;;;;;;;6.53;2.33;;;18.00;95.80;;;;;;4963810;28;20041;-85
2023/06/06 07:31:21;;;;;;;4.70;2.45;;;18.10;95.60;;;;;;4946801;28;20038;-85
2023/06/06 07:33:50;;;;;;;4.78;2.40;;;18.10;95.50;;;;;;4981854;28;20113;-85
2023/06/06 07:36:16;;;;;;;6.07;2.58;;;18.20;95.50;;;;;;4981257;28;20047;-83
2023/06/06 07:38:43;;;;;;;4.97;2.60;;;18.20;95.30;;;;;;4986296;28;20072;-85
2023/06/06 07:41:11;;;;;;;7.13;2.58;;;18.30;95.40;;;;;;4964639;28;20042;-85
2023/06/06 07:43:37;;;;;;;;;;;18.40;95.40;;;;;;4966733;28;20045;-85
2023/06/06 07:46:02;;;;;;;5.03;2.70;;;18.40;95.40;;;;;;4964365;28;19917;-83
2023/06/06 07:48:28;;;;;;;7.20;2.55;;;18.50;95.30;;;;;;4947336;28;20126;-83
2023/06/06 07:50:54;;;;;;;5.40;2.50;;;18.50;94.90;;;;;;4950186;28;20042;-83
2023/06/06 07:53:20;;;;;;;6.10;2.60;;;18.50;94.30;;;;;;4970936;28;20041;-83
2023/06/06 07:55:47;;;;;;;6.63;2.28;;;18.50;94.40;;;;;;4959789;28;20383;-83
2023/06/06 07:58:17;;;;;;;6.57;3.22;;;18.70;94.70;;;;;;4953222;28;20208;-83
2023/06/06 08:00:44;;;;;;;5.13;2.80;;;18.70;94.70;;;;;;4940323;28;20545;-80
2023/06/06 08:03:11;;;;;;;5.95;2.63;;;18.80;94.90;;;;;;4960877;28;20100;-80
2023/06/06 08:05:38;;;;;;;8.20;2.42;;;18.80;94.70;;;;;;4962448;28;20058;-80
2023/06/06 08:08:06;;;;;;;7.40;2.40;;;18.90;94.80;;;;;;4990948;28;20045;-80
2023/06/06 08:10:32;;;;;;;6.88;2.97;;;18.90;94.60;;;;;;4954410;28;20064;-80
2023/06/06 08:13:00;;;;;;;11.77;2.97;;;19.00;94.40;;;;;;4995976;28;20104;-80
2023/06/06 08:15:25;;;;;;;4.80;2.63;;;19.00;94.20;;;;;;4956257;28;20042;-80
2023/06/06 08:17:51;;;;;;;6.60;2.75;;;19.10;94.20;;;;;;4957876;28;20038;-80
2023/06/06 08:20:17;;;;;;;7.50;2.53;;;19.10;94.30;;;;;;4949591;28;20061;-81
2023/06/06 08:22:50;;;;;;;6.78;2.67;;;19.20;94.20;;;;;;4962813;28;20054;-80
2023/06/06 08:25:15;;;;;;;6.43;2.75;;;19.20;94.10;;;;;;4933795;28;20371;-80
2023/06/06 08:27:42;;;;;;;8.80;2.92;;;19.20;94.10;;;;;;4934237;28;20042;-81
2023/06/06 08:30:08;;;;;;;6.68;2.70;;;19.30;94.00;;;;;;4960217;28;20550;-81
2023/06/06 08:32:34;;;;;;;4.57;2.90;;;19.30;94.20;;;;;;4948385;28;20054;-81
2023/06/06 08:35:03;;;;;;;5.40;2.50;;;19.40;93.70;;;;;;4970880;28;20046;-80
2023/06/06 08:37:30;;;;;;;3.88;2.35;;;19.50;93.30;;;;;;4929705;28;20078;-80
2023/06/06 08:39:56;;;;;;;5.20;2.40;;;19.50;93.10;;;;;;4927116;28;20038;-81
2023/06/06 08:42:22;;;;;;;4.63;2.80;;;19.60;93.20;;;;;;4981817;28;20633;-81
2023/06/06 08:44:49;;;;;;;6.18;2.33;;;19.60;93.10;;;;;;4968330;28;20736;-81
2023/06/06 08:47:15;;;;;;;5.85;2.53;;;19.70;93.10;;;;;;4963652;28;20116;-81
2023/06/06 08:49:41;;;;;;;7.28;2.72;;;19.70;93.00;;;;;;4963390;28;20047;-81
2023/06/06 08:52:08;;;;;;;6.03;2.30;;;19.80;93.10;;;;;;4964697;28;20062;-81
2023/06/06 08:54:37;;;;;;;5.75;2.70;;;19.80;93.20;;;;;;4974737;28;20038;-81
2023/06/06 08:57:08;;;;;;;;;;;19.80;93.30;;;;;;4969186;28;20043;-80
2023/06/06 08:59:40;;;;;;;5.35;2.33;;;19.80;93.30;;;;;;4953243;28;20012;-81
2023/06/06 09:02:08;;;;;;;5.97;2.40;;;19.90;93.30;;;;;;4947902;28;20046;-81
2023/06/06 09:04:34;;;;;;;4.00;2.83;;;19.90;93.20;;;;;;4963002;28;20061;-80
2023/06/06 09:07:04;;;;;;;5.07;2.58;;;19.90;92.90;;;;;;4954229;28;20125;-80
2023/06/06 09:09:33;;;;;;;5.32;2.78;;;20.00;93.00;;;;;;4979770;28;20069;-81
2023/06/06 09:11:59;;;;;;;8.32;2.95;;;20.00;92.70;;;;;;4936970;28;20042;-81
2023/06/06 09:14:25;;;;;;;5.80;2.60;;;20.00;92.70;;;;;;4938146;28;20054;-81
2023/06/06 09:16:54;;;;;;;7.13;3.10;;;20.10;92.50;;;;;;4979322;28;20046;-81
2023/06/06 09:19:24;;;;;;;8.32;2.80;;;20.20;92.60;;;;;;4984404;28;20133;-81
2023/06/06 09:21:50;;;;;;;7.70;3.05;;;20.30;91.00;;;;;;4980888;28;20070;-81
2023/06/06 09:24:16;;;;;;;7.45;3.22;;;20.30;91.40;;;;;;4962599;28;20856;-81
2023/06/06 09:26:42;;;;;;;6.68;2.50;;;20.30;91.50;;;;;;4958177;28;20046;-81
2023/06/06 09:29:08;;;;;;;5.03;2.80;;;20.40;91.80;;;;;;4959478;28;20451;-81
2023/06/06 09:31:38;;;;;;;4.18;2.55;;;20.50;91.70;;;;;;4964612;28;20530;-81
2023/06/06 09:34:07;;;;;;;5.50;2.83;;;20.50;91.60;;;;;;4969465;28;20050;-81
2023/06/06 09:36:33;;;;;;;5.13;3.17;;;20.60;91.70;;;;;;4955826;28;20066;-80
2023/06/06 09:39:08;;;;;;;6.20;2.80;;;20.60;91.70;;;;;;4964015;28;20074;-81
2023/06/06 09:41:41;;;;;;;7.72;2.95;;;20.60;91.50;;;;;;4939758;28;20069;-81
2023/06/06 09:44:28;;;;;;;6.22;3.13;;;20.60;91.40;;;;;;4953852;28;20108;-80
2023/06/06 09:47:02;;;;;;;4.63;2.92;;;20.60;91.50;;;;;;4974391;28;20128;-80
2023/06/06 09:49:32;;;;;;;4.90;2.67;;;20.60;91.40;;;;;;4919407;28;20042;-80
2023/06/06 09:52:04;;;;;;;3.97;2.53;;;20.60;91.20;;;;;;4979037;28;20047;-81
2023/06/06 09:54:30;;;;;;;5.50;2.80;;;20.50;91.00;;;;;;4973048;28;20092;-81
2023/06/06 09:56:56;;;;;;;7.78;3.00;;;20.60;90.90;;;;;;4979554;28;20131;-80
2023/06/06 09:59:27;;;;;;;4.65;2.50;;;20.50;90.80;;;;;;4972514;28;20137;-81
2023/06/06 10:02:02;;;;;;;5.93;2.78;;;20.50;90.80;;;;;;4960050;28;20054;-81
2023/06/06 10:04:29;;;;;;;6.95;2.72;;;20.50;90.90;;;;;;4990002;28;20065;-81
2023/06/06 10:06:57;;;;;;;4.55;2.70;;;20.60;90.90;;;;;;4950320;28;20411;-80
2023/06/06 10:09:23;;;;;;;8.48;2.83;;;20.50;90.80;;;;;;4957142;28;20073;-80
2023/06/06 10:11:49;;;;;;;7.28;3.00;;;20.50;90.80;;;;;;4982351;28;20084;-80
2023/06/06 10:14:15;;;;;;;6.45;2.72;;;20.40;90.90;;;;;;4956751;28;20104;-80
2023/06/06 10:16:41;;;;;;;9.20;3.40;;;20.40;91.20;;;;;;4969542;28;20042;-80
2023/06/06 10:19:08;;;;;;;4.75;2.72;;;20.50;91.30;;;;;;4952352;28;20403;-80
2023/06/06 10:21:35;;;;;;;6.40;2.70;;;20.50;91.00;;;;;;4950490;28;20042;-81
2023/06/06 10:24:01;;;;;;;5.57;3.15;;;20.50;91.20;;;;;;4957666;28;20047;-80
2023/06/06 10:26:51;;;;;;;7.30;2.97;;;20.60;91.60;;;;;;4967170;28;20069;-81
2023/06/06 10:30:00;;;;;;;7.07;3.20;;;20.60;91.50;;;;;;4956184;28;20046;-81
2023/06/06 10:32:57;;;;;;;5.15;3.25;;;20.60;91.50;;;;;;4979724;28;20053;-80
2023/06/06 10:35:22;;;;;;;7.55;3.67;;;20.70;91.90;;;;;;4974047;28;20038;-81
2023/06/06 10:38:04;;;;;;;4.88;3.08;;;20.90;91.70;;;;;;4956316;28;20494;-81
2023/06/06 10:40:41;;;;;;;6.60;3.22;;;21.10;91.50;;;;;;4953398;28;20146;-81
2023/06/06 10:43:08;;;;;;;8.32;3.15;;;21.10;90.50;;;;;;4970694;28;20526;-81
2023/06/06 10:45:41;;;;;;;7.22;3.40;;;21.10;90.40;;;;;;4933304;28;20123;-82
2023/06/06 10:48:10;;;;;;;5.90;3.10;;;21.30;90.90;;;;;;4942110;28;20703;-82
2023/06/06 10:50:36;;;;;;;6.43;3.05;;;21.50;90.20;;;;;;4957309;28;20129;-83
2023/06/06 10:53:07;;;;;;;5.05;2.90;;;21.70;90.00;;;;;;4938953;28;20042;-82
2023/06/06 10:55:39;;;;;;;6.07;3.00;;;21.80;89.00;;;;;;4962675;28;20080;-82
2023/06/06 10:58:17;;;;;;;7.55;3.22;;;21.70;85.60;;;;;;4977607;28;20129;-82
2023/06/06 11:00:47;;;;;;;6.35;3.30;;;21.60;85.80;;;;;;4956110;28;20042;-82
2023/06/06 11:03:21;;;;;;;5.82;2.90;;;21.70;87.40;;;;;;4964050;28;20489;-81
2023/06/06 11:06:06;;;;;;;5.57;3.20;;;21.90;86.40;;;;;;4956564;28;20061;-82
2023/06/06 11:08:56;;;;;;;4.30;2.67;;;22.00;86.30;;;;;;4965988;28;20451;-82
2023/06/06 11:11:26;;;;;;;8.02;3.20;;;22.00;86.30;;;;;;4987797;28;20074;-85
2023/06/06 11:14:06;;;;;;;5.07;2.72;;;22.00;83.80;;;;;;4978510;28;20379;-85
2023/06/06 11:16:39;;;;;;;8.57;2.70;;;21.90;80.90;;;;;;4987290;28;20050;-81
2023/06/06 11:19:08;;;;;;;4.68;3.10;;;21.90;82.30;;;;;;4991365;28;20073;-81
2023/06/06 11:21:39;;;;;;;6.95;3.05;;;21.90;84.10;;;;;;4957068;28;20151;-81
2023/06/06 11:24:05;;;;;;;7.82;2.95;;;21.90;80.90;;;;;;4959728;28;20104;-81
2023/06/06 11:26:36;;;;;;;8.50;2.92;;;22.00;80.00;;;;;;4948605;28;20110;-82
2023/06/06 11:29:03;;;;;;;5.90;2.78;;;22.10;80.20;;;;;;4965874;28;20139;-81
2023/06/06 11:31:30;;;;;;;6.28;2.58;;;22.10;79.00;;;;;;4951150;28;20038;-82
2023/06/06 11:34:07;;;;;;;5.03;2.72;;;22.20;79.90;;;;;;4963320;28;20053;-81
2023/06/06 11:36:34;;;;;;;7.97;2.80;;;22.10;78.70;;;;;;4972481;28;20146;-82
2023/06/06 11:39:00;;;;;;;5.65;2.80;;;22.20;77.60;;;;;;4963187;28;20038;-81
2023/06/06 11:41:27;;;;;;;7.28;2.45;;;22.10;77.70;;;;;;4962005;28;20042;-82
2023/06/06 11:43:53;;;;;;;5.70;2.70;;;22.10;77.60;;;;;;4996830;28;20042;-83
2023/06/06 11:46:19;;;;;;;5.10;2.63;;;22.20;79.40;;;;;;4979296;28;20093;-83
2023/06/06 11:48:45;;;;;;;6.28;2.55;;;22.20;78.20;;;;;;4959429;28;20092;-84
2023/06/06 11:51:12;;;;;;;4.95;2.63;;;22.30;78.50;;;;;;4941119;28;20045;-83
2023/06/06 11:53:38;;;;;;;8.63;2.90;;;22.30;78.30;;;;;;4961909;28;20042;-81
2023/06/06 11:56:05;;;;;;;6.10;2.50;;;22.30;76.90;;;;;;4972973;28;20391;-85
2023/06/06 11:58:31;;;;;;;6.93;2.92;;;22.40;77.90;;;;;;4960004;28;20042;-84
2023/06/06 12:01:03;;;;;;;9.45;3.13;;;22.50;77.40;;;;;;4956628;28;20056;-84
2023/06/06 12:03:31;;;;;;;4.95;2.85;;;22.60;77.10;;;;;;4939927;28;20138;-84
2023/06/06 12:06:04;;;;;;;5.70;2.87;;;22.60;79.40;;;;;;4967503;28;20046;-85
2023/06/06 12:08:33;;;;;;;7.43;2.80;;;22.60;78.60;;;;;;4963823;28;20348;-83
2023/06/06 12:11:30;;;;;;;11.20;3.42;;;22.60;79.00;;;;;;4957875;28;20043;-83
2023/06/06 12:13:57;;;;;;;7.32;3.50;;;22.60;78.90;;;;;;4979908;28;20112;-83
2023/06/06 12:16:27;;;;;;;5.03;3.00;;;22.60;78.50;;;;;;4967378;28;20094;-83
2023/06/06 12:18:54;;;;;;;6.70;3.03;;;22.60;77.30;;;;;;4980333;28;20045;-83
2023/06/06 12:21:20;;;;;;;9.15;3.45;;;22.60;79.50;;;;;;4967572;28;20042;-83
2023/06/06 12:23:46;;;;;;;7.07;3.03;;;22.50;79.00;;;;;;4958190;28;20502;-83
2023/06/06 12:26:12;;;;;;;8.77;3.38;;;22.60;80.20;;;;;;4971112;28;20456;-82
2023/06/06 12:29:00;;;;;;;6.75;3.05;;;22.70;80.90;;;;;;4961934;28;20058;-83
2023/06/06 12:31:27;;;;;;;7.43;3.30;;;22.70;80.50;;;;;;4963487;28;20181;-84
2023/06/06 12:33:55;;;;;;;10.05;4.40;;;22.70;80.30;;;;;;4966927;28;20038;-84
2023/06/06 12:36:24;;;;;;;8.45;3.30;;;22.70;80.90;;;;;;4943643;28;20486;-85
2023/06/06 12:39:00;;;;;;;6.10;3.03;;;22.60;81.20;;;;;;4961358;28;20375;-82
2023/06/06 12:41:42;;;;;;;7.18;3.17;;;22.60;82.50;;;;;;4950123;28;20042;-84
2023/06/06 12:44:16;;;;;;;9.13;3.58;;;22.50;81.40;;;;;;4963612;28;20095;-85
2023/06/06 12:46:42;;;;;;;9.52;3.65;;;22.60;81.80;;;;;;4973361;28;20065;-83
2023/06/06 12:49:09;;;;;;;8.75;3.00;;;22.50;81.80;;;;;;4959780;28;20363;-82
2023/06/06 12:51:35;;;;;;;8.63;3.55;;;22.50;83.30;;;;;;4971756;28;20049;-82
2023/06/06 12:54:02;;;;;;;8.35;2.92;;;22.30;82.70;;;;;;4936149;28;20066;-84